Time;durP1;ratioP1;P1;durP2;ratioP2;P2;SDS_P1;SDS_P2;PMS_P1;PMS_P2;Temp;Humidity;BMP_temperature;BMP_pressure;BME280_temperature;BME280_humidity;BME280_pressure;Samples;Min_cycle;Max_cycle;Signal;HPM_P1;HPM_P2
2024/04/14 00:00:55;;;;;;;1.70;1.30;;;21.90;67.80;;;;;;5456200;26;20751;-92
2024/04/14 00:03:24;;;;;;;1.70;1.30;;;22.00;68.00;;;;;;5456112;26;20515;-91
2024/04/14 00:05:50;;;;;;;1.83;1.50;;;22.00;68.90;;;;;;5456295;26;20702;-92
2024/04/14 00:08:18;;;;;;;1.70;1.30;;;22.00;68.20;;;;;;5456547;26;20444;-91
2024/04/14 00:10:44;;;;;;;1.87;1.50;;;21.90;68.20;;;;;;5456216;26;20445;-92
2024/04/14 00:13:15;;;;;;;1.80;1.40;;;21.90;68.10;;;;;;5457161;26;20550;-92
2024/04/14 00:15:41;;;;;;;1.87;1.10;;;22.00;68.30;;;;;;5470066;26;20219;-90
2024/04/14 00:18:10;;;;;;;1.80;1.47;;;21.90;68.10;;;;;;5477675;26;20522;-91
2024/04/14 00:20:36;;;;;;;2.20;1.30;;;22.00;68.40;;;;;;5468413;26;20557;-93
2024/04/14 00:23:05;;;;;;;1.80;1.30;;;22.00;68.20;;;;;;5456940;26;20449;-92
2024/04/14 00:25:34;;;;;;;2.30;1.50;;;21.90;67.80;;;;;;5456921;26;20270;-92
2024/04/14 00:28:02;;;;;;;1.90;1.37;;;21.90;67.60;;;;;;5457993;26;20437;-91
2024/04/14 00:30:31;;;;;;;1.80;1.30;;;21.90;67.70;;;;;;5457646;26;20461;-92
2024/04/14 00:32:59;;;;;;;2.00;1.30;;;21.90;67.50;;;;;;5457803;26;20780;-92
2024/04/14 00:35:40;;;;;;;2.23;1.30;;;21.90;67.30;;;;;;5460817;26;20452;-92
2024/04/14 00:38:09;;;;;;;1.70;1.20;;;22.00;67.40;;;;;;5467852;26;20417;-94
2024/04/14 00:40:35;;;;;;;1.80;1.40;;;21.90;67.20;;;;;;5464228;26;20445;-92
2024/04/14 00:43:04;;;;;;;1.67;1.10;;;21.90;67.20;;;;;;5457744;26;21004;-91
2024/04/14 00:45:33;;;;;;;1.80;1.30;;;22.00;67.20;;;;;;5457503;26;20722;-92
2024/04/14 00:48:03;;;;;;;1.60;1.10;;;21.90;67.10;;;;;;5457218;26;20445;-93
2024/04/14 00:50:29;;;;;;;1.70;1.30;;;21.90;67.90;;;;;;5457288;26;20465;-93
2024/04/14 00:52:58;;;;;;;2.10;1.30;;;21.90;66.90;;;;;;5457011;26;20445;-90
2024/04/14 00:55:29;;;;;;;1.50;0.90;;;21.90;66.90;;;;;;5456803;26;20553;-93
2024/04/14 00:57:58;;;;;;;1.90;1.47;;;21.90;66.90;;;;;;5455523;26;20857;-91
2024/04/14 01:00:26;;;;;;;3.30;1.53;;;21.90;66.70;;;;;;5457718;26;20449;-93
2024/04/14 01:02:57;;;;;;;1.80;1.20;;;22.00;66.60;;;;;;5456646;26;20956;-92
2024/04/14 01:05:23;;;;;;;2.33;1.40;;;21.90;66.30;;;;;;5457511;26;20445;-91
2024/04/14 01:07:52;;;;;;;1.73;1.23;;;21.90;66.20;;;;;;5457281;26;20437;-92
2024/04/14 01:10:20;;;;;;;2.23;1.33;;;21.90;66.20;;;;;;5457647;26;20452;-93
2024/04/14 01:12:48;;;;;;;2.50;1.63;;;21.90;67.10;;;;;;5456944;26;20449;-93
2024/04/14 01:15:15;;;;;;;2.17;1.43;;;22.00;66.30;;;;;;5457055;26;20504;-93
2024/04/14 01:17:46;;;;;;;2.00;1.37;;;21.90;66.10;;;;;;5458750;26;20440;-93
2024/04/14 01:20:14;;;;;;;2.43;1.37;;;21.90;65.90;;;;;;5456710;26;20453;-91
2024/04/14 01:22:49;;;;;;;1.93;1.10;;;21.90;66.00;;;;;;5456482;26;20505;-92
2024/04/14 01:25:17;;;;;;;1.87;1.40;;;21.90;66.10;;;;;;5459220;26;20515;-92
2024/04/14 01:27:49;;;;;;;1.93;1.40;;;22.00;66.20;;;;;;5459663;26;20496;-93
2024/04/14 01:30:19;;;;;;;2.10;1.33;;;22.00;66.00;;;;;;5465783;26;20449;-92
2024/04/14 01:32:47;;;;;;;1.80;1.10;;;21.90;66.00;;;;;;5463733;26;20445;-93
2024/04/14 01:35:15;;;;;;;1.60;1.20;;;21.90;65.90;;;;;;5457153;26;20480;-93
2024/04/14 01:37:44;;;;;;;2.07;1.43;;;21.90;65.80;;;;;;5454408;26;20555;-93
2024/04/14 01:40:11;;;;;;;2.00;1.50;;;21.90;65.80;;;;;;5456003;26;20521;-93
2024/04/14 01:42:42;;;;;;;2.83;1.30;;;21.90;65.70;;;;;;5456137;26;20487;-91
2024/04/14 01:45:10;;;;;;;1.83;1.40;;;21.90;65.60;;;;;;5456223;26;20465;-92
2024/04/14 01:47:40;;;;;;;1.97;1.27;;;21.90;65.70;;;;;;5456149;26;20513;-91
2024/04/14 01:50:08;;;;;;;2.80;1.50;;;21.90;65.80;;;;;;5456472;26;20547;-92
2024/04/14 01:52:37;;;;;;;1.93;1.10;;;21.90;66.00;;;;;;5456474;26;20960;-92
2024/04/14 01:55:04;;;;;;;1.70;1.00;;;21.90;66.10;;;;;;5456450;26;20487;-92
2024/04/14 01:57:34;;;;;;;1.90;1.20;;;21.90;66.10;;;;;;5456025;26;20505;-94
2024/04/14 02:00:03;;;;;;;1.80;1.30;;;21.90;66.10;;;;;;5456218;26;20464;-93
2024/04/14 02:02:41;;;;;;;2.30;1.17;;;21.90;66.10;;;;;;5456790;26;20506;-91
2024/04/14 02:05:08;;;;;;;1.70;1.20;;;22.00;66.30;;;;;;5458102;26;20491;-92
2024/04/14 02:07:37;;;;;;;2.60;1.33;;;21.90;66.20;;;;;;5425355;26;20441;-92
2024/04/14 02:10:04;;;;;;;1.80;1.30;;;22.00;66.30;;;;;;5457252;26;20432;-92
2024/04/14 02:16:42;;;;;;;1.93;1.30;;;21.90;66.10;;;;;;5397302;26;20508;-91
2024/04/14 02:19:37;;;;;;;2.00;1.37;;;21.80;66.00;;;;;;5438357;21;20602;-92
2024/04/14 02:22:08;;;;;;;1.90;1.20;;;21.90;66.10;;;;;;5469739;26;20444;-93
2024/04/14 02:24:36;;;;;;;2.10;1.10;;;21.80;66.10;;;;;;5542888;21;20963;-92
2024/04/14 02:30:40;;;;;;;2.30;1.20;;;21.90;66.10;;;;;;5329734;26;20466;-92
2024/04/14 02:33:05;;;;;;;1.80;1.10;;;21.90;66.10;;;;;;5314851;27;20463;-90
2024/04/14 02:35:34;;;;;;;1.97;1.17;;;22.00;65.60;;;;;;5349226;21;20558;-91
2024/04/14 02:38:03;;;;;;;2.53;1.40;;;21.90;66.10;;;;;;5436736;26;20216;-92
2024/04/14 02:40:31;;;;;;;1.80;1.23;;;21.90;66.10;;;;;;5421213;26;20960;-93
2024/04/14 02:42:57;;;;;;;1.90;1.07;;;21.90;66.00;;;;;;5420599;26;20557;-92
2024/04/14 02:45:26;;;;;;;2.23;1.20;;;21.90;66.00;;;;;;5421236;26;20477;-92
2024/04/14 02:47:52;;;;;;;1.70;1.10;;;21.80;65.90;;;;;;5421011;26;20301;-92
2024/04/14 02:50:20;;;;;;;1.97;1.20;;;21.80;65.90;;;;;;5421016;26;20498;-95
2024/04/14 02:52:46;;;;;;;1.90;1.27;;;21.90;66.00;;;;;;5421006;26;21025;-92
2024/04/14 02:55:17;;;;;;;2.23;1.10;;;21.90;66.00;;;;;;5420554;26;20462;-92
2024/04/14 02:57:46;;;;;;;1.60;1.00;;;21.80;65.90;;;;;;5421285;26;20212;-93
2024/04/14 03:00:15;;;;;;;2.00;1.30;;;21.80;65.90;;;;;;5420319;26;20506;-92
2024/04/14 03:02:40;;;;;;;1.70;1.20;;;21.90;66.00;;;;;;5421243;26;20443;-92
2024/04/14 03:05:09;;;;;;;2.47;1.40;;;21.90;66.00;;;;;;5422087;26;20580;-93
2024/04/14 03:07:35;;;;;;;1.93;1.20;;;21.80;65.80;;;;;;5420665;26;20216;-93
2024/04/14 03:10:03;;;;;;;1.97;1.40;;;21.80;65.80;;;;;;5421283;26;20454;-91
2024/04/14 03:12:52;;;;;;;1.73;1.10;;;21.90;66.00;;;;;;5423675;26;20221;-91
2024/04/14 03:15:24;;;;;;;1.80;1.23;;;21.90;66.00;;;;;;5605995;21;21046;-91
2024/04/14 03:17:50;;;;;;;2.23;1.07;;;21.80;65.80;;;;;;5386168;26;20439;-92
2024/04/14 03:20:19;;;;;;;2.10;1.20;;;21.80;65.80;;;;;;5407503;26;20509;-91
2024/04/14 03:22:44;;;;;;;1.83;1.13;;;21.80;65.80;;;;;;5407102;26;20217;-93
2024/04/14 03:25:13;;;;;;;1.70;1.20;;;21.80;65.80;;;;;;5407242;26;21341;-91
2024/04/14 03:27:39;;;;;;;2.50;1.30;;;21.80;65.80;;;;;;5404379;26;20296;-93
2024/04/14 03:30:11;;;;;;;1.73;1.20;;;21.80;65.80;;;;;;5385733;26;20455;-93
2024/04/14 03:32:36;;;;;;;2.10;1.33;;;21.80;65.80;;;;;;5384932;26;20295;-92
2024/04/14 03:35:05;;;;;;;2.00;1.07;;;21.90;66.00;;;;;;5384876;26;20443;-92
2024/04/14 03:37:35;;;;;;;2.00;1.30;;;21.80;65.80;;;;;;5384763;26;20322;-92
2024/04/14 03:40:05;;;;;;;1.70;1.20;;;21.90;65.90;;;;;;5384202;26;20452;-92
2024/04/14 03:42:34;;;;;;;1.97;1.37;;;21.90;66.00;;;;;;5384561;26;20451;-92
2024/04/14 03:45:18;;;;;;;1.90;1.43;;;21.80;65.80;;;;;;5385137;26;20554;-92
2024/04/14 03:47:47;;;;;;;1.70;1.10;;;21.90;65.90;;;;;;5384578;26;20451;-93
2024/04/14 03:50:16;;;;;;;2.07;1.43;;;21.90;66.00;;;;;;5384012;26;20440;-92
2024/04/14 03:52:42;;;;;;;1.80;1.20;;;21.80;65.80;;;;;;5384645;26;20444;-93
2024/04/14 03:55:11;;;;;;;3.17;1.43;;;21.80;65.80;;;;;;5353901;26;20946;-92
2024/04/14 03:57:37;;;;;;;2.30;1.27;;;21.80;65.80;;;;;;5385026;26;20552;-91
2024/04/14 04:00:10;;;;;;;1.80;1.40;;;21.80;65.80;;;;;;5384276;26;20463;-91
2024/04/14 04:02:38;;;;;;;1.60;1.10;;;21.80;65.80;;;;;;5384126;26;20501;-91
2024/04/14 04:05:07;;;;;;;2.20;1.37;;;21.80;65.80;;;;;;5384265;26;20444;-91
2024/04/14 04:07:33;;;;;;;2.03;1.47;;;21.80;65.80;;;;;;5384471;26;20935;-91
2024/04/14 04:10:02;;;;;;;1.80;1.27;;;21.80;65.70;;;;;;5384446;26;20452;-92
2024/04/14 04:12:28;;;;;;;1.63;1.17;;;21.80;65.80;;;;;;5353781;26;20755;-92
2024/04/14 04:14:57;;;;;;;2.13;1.47;;;21.80;65.80;;;;;;5402374;26;20474;-92
2024/04/14 04:17:23;;;;;;;1.70;1.10;;;21.90;65.90;;;;;;5419182;26;20442;-92
2024/04/14 04:19:54;;;;;;;2.37;1.37;;;21.80;65.80;;;;;;5419473;26;20535;-91
2024/04/14 04:22:20;;;;;;;1.60;1.00;;;21.80;65.80;;;;;;5419594;26;20213;-91
2024/04/14 04:24:49;;;;;;;1.80;1.27;;;21.80;65.80;;;;;;5418873;26;20567;-91
2024/04/14 04:27:15;;;;;;;3.00;1.30;;;21.80;65.80;;;;;;5419720;26;20442;-91
2024/04/14 04:29:43;;;;;;;1.70;1.13;;;21.90;66.00;;;;;;5419330;26;20458;-92
2024/04/14 04:32:10;;;;;;;2.03;1.30;;;21.80;65.80;;;;;;5418443;26;21013;-92
2024/04/14 04:34:38;;;;;;;1.60;1.10;;;21.80;65.80;;;;;;5419197;26;20465;-91
2024/04/14 04:37:07;;;;;;;1.80;1.20;;;21.80;65.80;;;;;;5424310;26;20833;-93
2024/04/14 04:39:35;;;;;;;2.03;1.30;;;21.80;65.80;;;;;;5421094;26;20443;-92
2024/04/14 04:42:01;;;;;;;2.13;1.30;;;21.80;65.80;;;;;;5418881;26;20518;-92
2024/04/14 04:44:30;;;;;;;1.80;1.27;;;21.80;65.80;;;;;;5419578;26;20537;-94
2024/04/14 04:46:56;;;;;;;2.20;1.40;;;21.80;65.90;;;;;;5419450;26;20881;-93
2024/04/14 04:49:24;;;;;;;2.10;1.20;;;21.80;65.90;;;;;;5418775;26;20451;-93
2024/04/14 04:52:11;;;;;;;1.80;1.13;;;21.80;65.90;;;;;;5503388;21;20220;-92
2024/04/14 04:54:40;;;;;;;1.80;1.30;;;21.80;65.90;;;;;;5348981;26;20964;-92
2024/04/14 04:57:06;;;;;;;1.70;1.10;;;21.80;66.70;;;;;;5349146;26;20525;-91
2024/04/14 04:59:35;;;;;;;1.70;1.10;;;21.90;66.00;;;;;;5348497;26;20531;-91
2024/04/14 05:02:00;;;;;;;2.03;1.40;;;21.80;65.90;;;;;;5348919;26;20324;-92
2024/04/14 05:04:29;;;;;;;1.90;1.20;;;21.90;66.00;;;;;;5348783;26;20961;-93
2024/04/14 05:06:55;;;;;;;2.57;1.40;;;21.80;65.80;;;;;;5348389;26;20276;-93
2024/04/14 05:09:26;;;;;;;1.70;1.10;;;21.80;65.90;;;;;;5349113;26;20983;-92
2024/04/14 05:11:52;;;;;;;1.83;1.33;;;21.80;65.80;;;;;;5349070;26;20342;-92
2024/04/14 05:14:22;;;;;;;1.90;1.13;;;21.80;65.90;;;;;;5348770;26;20530;-92
2024/04/14 05:16:48;;;;;;;1.77;1.30;;;21.80;65.90;;;;;;5348298;26;20441;-92
2024/04/14 05:19:16;;;;;;;1.90;1.20;;;21.90;66.00;;;;;;5348347;26;20465;-91
2024/04/14 05:21:43;;;;;;;2.43;1.43;;;21.90;66.00;;;;;;5348300;26;20461;-92
2024/04/14 05:24:12;;;;;;;1.83;1.13;;;21.80;65.90;;;;;;5348852;26;20461;-91
2024/04/14 05:26:40;;;;;;;1.50;1.00;;;21.80;65.90;;;;;;5348401;26;20512;-91
2024/04/14 05:29:09;;;;;;;2.27;1.30;;;21.80;65.80;;;;;;5348498;26;20445;-92
2024/04/14 05:31:36;;;;;;;2.00;1.30;;;21.80;65.80;;;;;;5348445;26;20465;-93
2024/04/14 05:34:05;;;;;;;1.63;1.10;;;21.80;65.80;;;;;;5349060;26;20449;-91
2024/04/14 05:36:31;;;;;;;1.77;1.10;;;21.80;65.80;;;;;;5348786;26;20489;-91
2024/04/14 05:38:59;;;;;;;1.93;1.23;;;21.70;65.70;;;;;;5347914;26;20449;-92
2024/04/14 05:41:26;;;;;;;1.70;1.20;;;21.70;65.70;;;;;;5348051;26;20348;-92
2024/04/14 05:43:57;;;;;;;1.97;1.27;;;21.80;65.80;;;;;;5350075;26;20477;-92
2024/04/14 05:46:23;;;;;;;2.00;1.40;;;21.80;65.80;;;;;;5351311;26;20441;-94
2024/04/14 05:48:52;;;;;;;1.80;1.10;;;21.70;65.70;;;;;;5320620;26;20448;-92
2024/04/14 05:51:19;;;;;;;2.40;1.20;;;21.80;65.80;;;;;;5351482;26;20497;-92
2024/04/14 05:56:17;;;;;;;2.67;1.20;;;21.70;65.80;;;;;;5280672;27;21074;-92
2024/04/14 05:58:43;;;;;;;1.90;1.23;;;21.70;65.80;;;;;;5282551;27;20564;-94
2024/04/14 06:01:14;;;;;;;2.00;1.20;;;21.70;65.80;;;;;;5282390;27;20452;-92
2024/04/14 06:03:39;;;;;;;2.43;1.40;;;21.80;65.90;;;;;;5281793;27;20459;-93
2024/04/14 06:06:08;;;;;;;2.07;1.33;;;21.70;65.80;;;;;;5282206;27;20498;-92
2024/04/14 06:08:35;;;;;;;2.33;1.13;;;21.70;65.80;;;;;;5282141;27;20535;-92
2024/04/14 06:11:03;;;;;;;1.70;1.10;;;21.80;65.90;;;;;;5281983;27;20467;-92
2024/04/14 06:13:30;;;;;;;1.77;1.10;;;21.70;65.80;;;;;;5282551;27;20468;-93
2024/04/14 06:15:58;;;;;;;1.80;1.33;;;21.70;65.80;;;;;;5282560;27;20539;-92
2024/04/14 06:18:27;;;;;;;2.47;1.27;;;21.70;65.80;;;;;;5282458;27;20558;-92
2024/04/14 06:20:55;;;;;;;1.60;1.10;;;21.70;65.80;;;;;;5282327;27;20452;-92
2024/04/14 06:23:21;;;;;;;2.07;1.27;;;21.70;65.80;;;;;;5284224;27;20510;-93
2024/04/14 06:25:50;;;;;;;2.73;0.90;;;21.70;66.60;;;;;;5284354;27;20472;-93
2024/04/14 06:28:16;;;;;;;1.80;1.20;;;21.70;66.60;;;;;;5297911;27;20443;-93
2024/04/14 06:30:44;;;;;;;1.70;1.10;;;21.70;65.80;;;;;;5304265;27;20420;-92
2024/04/14 06:33:10;;;;;;;1.73;1.10;;;21.70;65.80;;;;;;5292116;27;20448;-92
2024/04/14 06:35:42;;;;;;;1.70;1.10;;;21.70;65.70;;;;;;5281905;27;20567;-92
2024/04/14 06:38:09;;;;;;;1.60;1.10;;;21.80;65.90;;;;;;5281418;27;20788;-93
2024/04/14 06:40:37;;;;;;;1.70;1.10;;;21.70;65.80;;;;;;5281520;27;20495;-92
2024/04/14 06:43:03;;;;;;;1.90;1.20;;;21.70;65.80;;;;;;5281959;27;20452;-93
2024/04/14 06:45:32;;;;;;;1.50;1.00;;;21.70;65.70;;;;;;5281240;27;20456;-94
2024/04/14 06:47:58;;;;;;;1.80;1.10;;;21.70;65.80;;;;;;5285711;27;20488;-92
2024/04/14 06:50:26;;;;;;;2.10;1.20;;;21.70;65.70;;;;;;5289352;27;20509;-92
2024/04/14 06:52:55;;;;;;;1.90;1.10;;;21.80;65.80;;;;;;5285030;27;20576;-92
2024/04/14 06:55:28;;;;;;;2.10;1.40;;;21.80;65.80;;;;;;5291709;27;20460;-92
2024/04/14 06:57:58;;;;;;;1.60;1.10;;;21.70;65.70;;;;;;5326092;21;20548;-92
2024/04/14 07:00:26;;;;;;;1.93;1.63;;;21.80;65.90;;;;;;5354626;26;20453;-91
2024/04/14 07:02:53;;;;;;;2.37;1.37;;;21.70;65.70;;;;;;5352946;26;20453;-92
2024/04/14 07:05:23;;;;;;;2.10;1.20;;;21.70;65.70;;;;;;5352325;26;20490;-92
2024/04/14 07:07:49;;;;;;;1.70;1.20;;;21.70;65.80;;;;;;5352518;26;20505;-91
2024/04/14 07:10:20;;;;;;;1.70;1.20;;;21.80;65.80;;;;;;5351796;26;20493;-91
2024/04/14 07:12:46;;;;;;;2.00;1.30;;;21.70;65.70;;;;;;5351685;26;20822;-92
2024/04/14 07:15:14;;;;;;;2.10;1.30;;;21.80;65.80;;;;;;5317478;27;20458;-91
2024/04/14 07:17:40;;;;;;;2.97;1.20;;;21.70;65.70;;;;;;5316085;27;20216;-91
2024/04/14 07:20:12;;;;;;;2.30;1.27;;;21.70;65.70;;;;;;5315149;27;20498;-92
2024/04/14 07:22:38;;;;;;;1.97;1.17;;;21.80;65.80;;;;;;5315185;27;20839;-92
2024/04/14 07:25:07;;;;;;;2.27;1.33;;;21.70;65.70;;;;;;5314916;27;20463;-92
2024/04/14 07:27:35;;;;;;;1.70;1.23;;;21.70;65.70;;;;;;5314957;27;20258;-92
2024/04/14 07:30:04;;;;;;;2.10;1.23;;;21.80;65.70;;;;;;5314675;27;20954;-91
2024/04/14 07:32:30;;;;;;;1.87;1.20;;;21.70;65.60;;;;;;5348956;26;20503;-92
2024/04/14 07:34:58;;;;;;;1.60;1.00;;;21.70;65.60;;;;;;5349234;26;20956;-91
2024/04/14 07:37:24;;;;;;;1.90;1.07;;;21.70;65.60;;;;;;5348942;26;20877;-92
2024/04/14 07:39:53;;;;;;;1.60;1.10;;;21.70;65.60;;;;;;5348917;26;20448;-92
2024/04/14 07:42:19;;;;;;;1.80;1.10;;;21.80;65.70;;;;;;5348931;26;20214;-91
2024/04/14 07:44:50;;;;;;;2.10;1.40;;;21.70;65.60;;;;;;5348667;26;20569;-92
2024/04/14 07:47:16;;;;;;;3.47;1.30;;;21.70;65.60;;;;;;5348967;26;20550;-92
2024/04/14 07:49:44;;;;;;;1.70;1.27;;;21.80;66.60;;;;;;5348906;26;20460;-91
2024/04/14 07:52:10;;;;;;;2.10;1.37;;;21.80;65.70;;;;;;5349049;26;20215;-91
2024/04/14 07:54:38;;;;;;;1.60;1.00;;;21.70;65.60;;;;;;5349046;26;20833;-92
2024/04/14 07:57:05;;;;;;;2.00;1.17;;;21.80;65.70;;;;;;5348787;26;20304;-91
2024/04/14 07:59:34;;;;;;;3.10;1.97;;;21.70;65.60;;;;;;5284436;27;20458;-89
2024/04/14 08:02:03;;;;;;;2.23;1.70;;;21.70;65.60;;;;;;5314776;26;20442;-91
2024/04/14 08:04:32;;;;;;;1.80;1.30;;;21.70;65.50;;;;;;5314909;26;20503;-92
2024/04/14 08:06:57;;;;;;;2.50;2.03;;;21.70;65.50;;;;;;5313173;26;20466;-91
2024/04/14 08:09:26;;;;;;;2.00;1.50;;;21.80;65.70;;;;;;5330398;26;20534;-92
2024/04/14 08:11:52;;;;;;;2.20;1.60;;;21.70;65.60;;;;;;5337032;26;20212;-92
2024/04/14 08:14:20;;;;;;;2.10;1.50;;;21.80;65.70;;;;;;5336698;26;20454;-92
2024/04/14 08:16:46;;;;;;;2.40;1.40;;;21.80;65.70;;;;;;5325837;26;20499;-91
2024/04/14 08:19:17;;;;;;;1.60;1.00;;;21.70;66.40;;;;;;5315856;26;20570;-92
2024/04/14 08:21:43;;;;;;;2.57;1.40;;;21.70;65.50;;;;;;5316171;27;20196;-91
2024/04/14 08:24:11;;;;;;;1.67;1.23;;;21.70;65.50;;;;;;5315137;26;20454;-92
2024/04/14 08:26:37;;;;;;;1.90;1.20;;;21.70;65.50;;;;;;5314598;26;20215;-92
2024/04/14 08:29:06;;;;;;;1.93;1.30;;;21.80;65.60;;;;;;5314267;26;20565;-92
2024/04/14 08:31:32;;;;;;;2.00;1.30;;;21.80;65.70;;;;;;5314314;26;20236;-92
2024/04/14 08:34:00;;;;;;;2.37;1.60;;;21.70;65.50;;;;;;5314251;26;20796;-91
2024/04/14 08:36:29;;;;;;;1.90;1.40;;;21.80;65.60;;;;;;5314279;26;20623;-91
2024/04/14 08:38:57;;;;;;;1.90;1.17;;;21.80;65.60;;;;;;5313979;27;20466;-91
2024/04/14 08:41:24;;;;;;;1.80;1.20;;;21.70;65.40;;;;;;5314201;26;20489;-91
2024/04/14 08:43:55;;;;;;;2.23;1.60;;;21.70;65.40;;;;;;5313878;27;20863;-92
2024/04/14 08:46:24;;;;;;;1.90;1.30;;;21.80;65.50;;;;;;5313890;27;20517;-91
2024/04/14 08:48:54;;;;;;;1.90;1.30;;;21.70;65.40;;;;;;5313753;27;20549;-92
2024/04/14 08:51:21;;;;;;;1.97;1.17;;;21.70;65.30;;;;;;5313785;26;20450;-92
2024/04/14 08:53:55;;;;;;;2.10;1.30;;;21.70;65.30;;;;;;5314062;26;20451;-91
2024/04/14 08:56:22;;;;;;;2.10;1.10;;;21.70;65.30;;;;;;5313993;27;20459;-92
2024/04/14 08:58:53;;;;;;;1.73;1.17;;;21.80;65.50;;;;;;5337769;26;20860;-92
2024/04/14 09:01:19;;;;;;;2.03;1.20;;;21.80;65.50;;;;;;5348047;26;21020;-91
2024/04/14 09:03:48;;;;;;;2.50;1.40;;;21.80;65.50;;;;;;5347926;26;20537;-92
2024/04/14 09:06:17;;;;;;;2.00;1.30;;;21.70;65.30;;;;;;5348451;26;20493;-91
2024/04/14 09:08:45;;;;;;;2.53;0.93;;;21.80;65.50;;;;;;5348241;26;21004;-92
2024/04/14 09:11:14;;;;;;;2.13;1.33;;;21.80;65.40;;;;;;5347697;26;20492;-92
2024/04/14 09:13:43;;;;;;;1.70;1.03;;;21.80;65.40;;;;;;5348902;26;20461;-92
2024/04/14 09:16:10;;;;;;;2.07;1.30;;;21.70;65.30;;;;;;5348548;26;20445;-92
2024/04/14 09:18:38;;;;;;;2.67;1.40;;;21.80;65.40;;;;;;5351791;26;20456;-91
2024/04/14 09:21:04;;;;;;;1.80;1.30;;;21.70;65.30;;;;;;5351790;26;20485;-91
2024/04/14 09:23:33;;;;;;;1.83;1.03;;;21.70;65.20;;;;;;5350384;26;20464;-92
2024/04/14 09:26:01;;;;;;;2.77;1.30;;;21.90;65.50;;;;;;5351107;26;20557;-92
2024/04/14 09:28:32;;;;;;;2.53;1.00;;;21.80;65.30;;;;;;5350960;26;20453;-92
2024/04/14 09:30:58;;;;;;;2.63;1.63;;;21.70;65.30;;;;;;5351252;26;20461;-92
2024/04/14 09:33:28;;;;;;;1.97;1.40;;;21.80;65.30;;;;;;5351399;26;20491;-91
2024/04/14 09:35:54;;;;;;;2.83;1.30;;;21.70;65.20;;;;;;5362402;26;20433;-91
2024/04/14 09:38:25;;;;;;;2.00;1.40;;;21.80;65.30;;;;;;5373651;26;20476;-90
2024/04/14 09:40:52;;;;;;;1.60;1.00;;;21.70;65.20;;;;;;5365061;26;20507;-91
2024/04/14 09:43:22;;;;;;;1.90;1.33;;;21.70;65.30;;;;;;5350771;26;20461;-91
2024/04/14 09:45:52;;;;;;;1.90;1.30;;;21.80;65.30;;;;;;5350783;26;20928;-91
2024/04/14 09:48:21;;;;;;;1.50;0.90;;;21.70;65.10;;;;;;5351376;26;20573;-91
2024/04/14 09:50:49;;;;;;;2.20;1.43;;;21.70;65.10;;;;;;5350979;26;20959;-91
2024/04/14 09:53:19;;;;;;;2.40;1.27;;;21.70;65.10;;;;;;5350880;26;20461;-91
2024/04/14 09:55:45;;;;;;;1.90;1.17;;;21.70;65.20;;;;;;5350857;26;20572;-91
2024/04/14 09:58:14;;;;;;;1.70;1.10;;;21.80;65.60;;;;;;5350500;26;20862;-91
2024/04/14 10:00:40;;;;;;;1.90;1.20;;;21.70;65.60;;;;;;5350481;26;20305;-91
2024/04/14 10:03:12;;;;;;;1.83;1.20;;;21.80;66.00;;;;;;5352767;26;20494;-92
2024/04/14 10:05:41;;;;;;;1.80;1.20;;;21.70;65.90;;;;;;5351912;26;20461;-91
2024/04/14 10:08:10;;;;;;;1.90;1.17;;;21.70;65.80;;;;;;5350780;26;20496;-92
2024/04/14 10:10:37;;;;;;;1.60;0.90;;;21.80;65.90;;;;;;5350562;26;20851;-91
2024/04/14 10:13:09;;;;;;;1.70;1.20;;;21.70;65.60;;;;;;5350373;26;20583;-91
2024/04/14 10:15:38;;;;;;;1.93;1.27;;;21.70;65.60;;;;;;5349843;26;20952;-90
2024/04/14 10:18:17;;;;;;;1.70;1.10;;;21.70;65.60;;;;;;5350687;26;20449;-93
2024/04/14 10:20:44;;;;;;;1.70;1.03;;;21.80;65.70;;;;;;5350126;26;20967;-92
2024/04/14 10:23:18;;;;;;;1.70;1.20;;;21.70;65.60;;;;;;5350370;26;20498;-91
2024/04/14 10:25:48;;;;;;;1.90;1.10;;;21.80;65.60;;;;;;5350337;26;20456;-90
2024/04/14 10:28:19;;;;;;;2.13;1.20;;;21.70;65.60;;;;;;5350072;26;20479;-92
2024/04/14 10:30:48;;;;;;;3.20;1.70;;;21.80;65.70;;;;;;5349907;26;20499;-92
2024/04/14 10:33:23;;;;;;;2.00;1.10;;;21.90;65.80;;;;;;5350214;26;20478;-94
2024/04/14 10:36:03;;;;;;;2.47;1.20;;;21.80;65.50;;;;;;5350280;26;21105;-92
2024/04/14 10:38:30;;;;;;;1.90;1.23;;;21.80;65.70;;;;;;5350932;26;20445;-93
2024/04/14 10:40:58;;;;;;;2.43;1.37;;;21.70;65.60;;;;;;5349631;26;20460;-92
2024/04/14 10:43:24;;;;;;;1.73;1.13;;;21.80;65.70;;;;;;5349932;26;20469;-92
2024/04/14 10:45:53;;;;;;;2.93;1.20;;;21.70;65.50;;;;;;5349814;26;20449;-92
2024/04/14 10:48:20;;;;;;;1.80;1.27;;;21.80;65.80;;;;;;5349704;26;20468;-92
2024/04/14 10:50:51;;;;;;;1.60;1.00;;;21.80;65.60;;;;;;5349875;26;20437;-93
2024/04/14 10:53:17;;;;;;;1.60;1.10;;;21.70;65.60;;;;;;5349734;26;20513;-93
2024/04/14 10:55:46;;;;;;;4.33;1.13;;;21.80;65.70;;;;;;5350099;26;20448;-92
2024/04/14 10:58:11;;;;;;;1.83;1.10;;;21.80;65.90;;;;;;5349681;26;20348;-93
2024/04/14 11:00:40;;;;;;;1.57;1.00;;;21.80;65.50;;;;;;5349967;26;20473;-92
2024/04/14 11:03:06;;;;;;;3.33;0.97;;;21.80;65.50;;;;;;5349736;26;20219;-93
2024/04/14 11:05:35;;;;;;;1.80;1.00;;;21.80;65.40;;;;;;5349523;26;20560;-91
2024/04/14 11:08:05;;;;;;;1.87;1.00;;;21.80;65.50;;;;;;5349898;26;20498;-93
2024/04/14 11:10:33;;;;;;;2.87;1.20;;;21.80;65.60;;;;;;5349560;26;20502;-92
2024/04/14 11:12:59;;;;;;;2.03;1.13;;;21.90;65.60;;;;;;5349224;26;20540;-93
2024/04/14 11:15:28;;;;;;;2.57;1.10;;;21.80;66.30;;;;;;5349454;26;20522;-92
2024/04/14 11:17:54;;;;;;;1.70;1.10;;;21.80;65.40;;;;;;5349585;26;20445;-92
2024/04/14 11:20:23;;;;;;;1.93;1.20;;;21.90;65.60;;;;;;5349033;26;20494;-93
2024/04/14 11:22:49;;;;;;;1.90;1.10;;;21.80;65.50;;;;;;5349317;26;20215;-94
2024/04/14 11:25:22;;;;;;;1.90;1.23;;;21.80;65.40;;;;;;5349513;26;20437;-92
2024/04/14 11:27:48;;;;;;;1.70;1.10;;;21.90;65.70;;;;;;5349421;26;20877;-92
2024/04/14 11:30:16;;;;;;;1.70;1.10;;;21.90;65.60;;;;;;5348796;26;20465;-93
2024/04/14 11:32:43;;;;;;;1.73;1.27;;;21.80;65.50;;;;;;5349225;26;20837;-91
2024/04/14 11:35:13;;;;;;;2.50;1.20;;;21.80;65.50;;;;;;5349809;26;20461;-92
2024/04/14 11:37:44;;;;;;;1.67;1.00;;;21.80;65.40;;;;;;5349164;26;20844;-92
2024/04/14 11:40:16;;;;;;;1.50;0.83;;;21.80;65.40;;;;;;5348814;26;20551;-94
2024/04/14 11:42:47;;;;;;;1.77;1.00;;;21.80;65.40;;;;;;5349042;26;20492;-92
2024/04/14 11:45:16;;;;;;;2.33;1.10;;;21.80;65.50;;;;;;5349353;26;20441;-93
2024/04/14 11:47:42;;;;;;;2.07;1.50;;;21.80;65.50;;;;;;5349225;26;20465;-92
2024/04/14 11:50:11;;;;;;;1.87;1.00;;;21.80;65.40;;;;;;5349769;26;20442;-92
2024/04/14 11:52:37;;;;;;;2.10;1.07;;;21.80;65.40;;;;;;5349456;26;20770;-92
2024/04/14 11:55:08;;;;;;;1.70;1.10;;;21.90;65.50;;;;;;5349604;26;20453;-92
2024/04/14 11:57:34;;;;;;;1.70;1.10;;;21.80;65.50;;;;;;5349601;26;20445;-92
2024/04/14 12:00:07;;;;;;;2.00;1.10;;;21.80;65.70;;;;;;5349423;26;20491;-92
2024/04/14 12:02:33;;;;;;;1.57;0.93;;;21.80;65.50;;;;;;5349297;26;20445;-93
2024/04/14 12:05:01;;;;;;;1.60;0.90;;;21.80;66.40;;;;;;5349508;26;20500;-92
2024/04/14 12:07:27;;;;;;;2.20;1.10;;;21.90;65.40;;;;;;5349160;26;20441;-92
2024/04/14 12:09:57;;;;;;;1.90;1.10;;;21.80;65.50;;;;;;5349458;26;20501;-92
2024/04/14 12:12:23;;;;;;;2.47;1.27;;;21.90;65.50;;;;;;5350418;26;20223;-92
2024/04/14 12:14:51;;;;;;;1.70;1.00;;;21.90;65.50;;;;;;5349973;26;20850;-92
2024/04/14 12:17:20;;;;;;;2.77;1.17;;;21.80;65.20;;;;;;5349168;26;20457;-92
2024/04/14 12:19:49;;;;;;;2.23;1.33;;;21.80;65.30;;;;;;5349182;26;20468;-92
2024/04/14 12:22:15;;;;;;;2.13;1.20;;;21.80;65.30;;;;;;5349378;26;20441;-92
2024/04/14 12:24:44;;;;;;;1.80;0.90;;;21.80;65.40;;;;;;5349113;26;20457;-92
2024/04/14 12:27:10;;;;;;;1.90;1.03;;;21.80;65.30;;;;;;5348957;26;20242;-92
2024/04/14 12:29:38;;;;;;;1.60;0.90;;;21.80;66.20;;;;;;5349078;26;20461;-92
2024/04/14 12:32:04;;;;;;;1.60;0.93;;;21.80;65.60;;;;;;5349031;26;20249;-92
2024/04/14 12:34:36;;;;;;;1.63;1.00;;;21.80;65.30;;;;;;5349577;26;20952;-92
2024/04/14 12:37:02;;;;;;;2.20;1.23;;;21.90;65.30;;;;;;5348700;26;20448;-92
2024/04/14 12:39:30;;;;;;;1.93;1.00;;;21.80;65.30;;;;;;5356471;26;20437;-91
2024/04/14 12:41:56;;;;;;;1.80;1.10;;;21.90;65.40;;;;;;5357648;26;20453;-92
2024/04/14 12:44:24;;;;;;;2.07;1.17;;;21.80;65.20;;;;;;5365302;26;20582;-92
2024/04/14 12:46:50;;;;;;;2.27;1.40;;;21.80;65.20;;;;;;5348615;26;20453;-92
2024/04/14 12:49:26;;;;;;;1.87;1.03;;;21.90;65.30;;;;;;5348992;26;20560;-93
2024/04/14 12:51:57;;;;;;;2.00;1.00;;;21.80;65.20;;;;;;5348168;26;20219;-92
2024/04/14 12:54:26;;;;;;;1.50;0.80;;;21.80;65.10;;;;;;5348798;26;20430;-92
2024/04/14 12:56:52;;;;;;;1.60;1.00;;;21.80;65.20;;;;;;5348276;26;20452;-92
2024/04/14 12:59:20;;;;;;;1.67;1.00;;;21.80;65.00;;;;;;5361593;26;20561;-92
2024/04/14 13:01:46;;;;;;;1.70;1.00;;;21.90;65.30;;;;;;5371002;26;20421;-92
2024/04/14 13:04:15;;;;;;;1.60;1.00;;;21.90;65.10;;;;;;5370684;26;20452;-90